createdAt,value
2018-12-06T00:00:48.653Z,99700.62
2018-12-06T00:03:16.553Z,99704.22
2018-12-06T00:05:44.113Z,99713.16
2018-12-06T00:08:11.720Z,99709.42
2018-12-06T00:10:39.753Z,99705.94
2018-12-06T00:13:07.358Z,99706.66
2018-12-06T00:15:34.960Z,99705.69
2018-12-06T00:18:02.581Z,99699.41
2018-12-06T00:20:30.576Z,99695.42
2018-12-06T00:22:58.296Z,99699.77
2018-12-06T00:25:25.855Z,99699.41
2018-12-06T00:27:54.274Z,99689.39
2018-12-06T00:30:22.489Z,99692.27
2018-12-06T00:32:50.913Z,99690.11
2018-12-06T00:35:18.508Z,99692.77
2018-12-06T00:37:46.493Z,99686.13
2018-12-06T00:40:14.090Z,99688.28
2018-12-06T00:42:41.659Z,99686.02
2018-12-06T00:45:09.583Z,99684.69
2018-12-06T00:47:37.187Z,99681.67
2018-12-06T00:50:04.745Z,99682.85
2018-12-06T00:52:33.300Z,99684.18
2018-12-06T00:55:00.895Z,99685.51
2018-12-06T00:57:28.509Z,99685.04
2018-12-06T00:59:56.088Z,99686.84
2018-12-06T01:02:24.020Z,99690.00
2018-12-06T01:04:51.622Z,99688.78
2018-12-06T01:07:19.226Z,99687.56
2018-12-06T01:09:46.944Z,99684.44
2018-12-06T01:12:14.883Z,99683.97
2018-12-06T01:14:42.470Z,99685.77
2018-12-06T01:17:10.085Z,99685.77
2018-12-06T01:19:38.073Z,99686.73
2018-12-06T01:22:05.637Z,99683.36
2018-12-06T01:24:33.223Z,99690.00
2018-12-06T01:27:01.291Z,99691.33
2018-12-06T01:29:28.945Z,99690.58
2018-12-06T01:31:56.536Z,99689.86
2018-12-06T01:34:24.462Z,99689.14
2018-12-06T01:36:52.114Z,99689.01
2018-12-06T01:39:19.986Z,99686.96
2018-12-06T01:41:47.569Z,99682.52
2018-12-06T01:44:15.473Z,99679.46
2018-12-06T01:46:43.072Z,99684.30
2018-12-06T01:49:10.674Z,99688.40
2018-12-06T01:51:38.246Z,99682.27
2018-12-06T01:54:06.129Z,99676.09
2018-12-06T01:56:33.735Z,99671.49
2018-12-06T01:59:01.340Z,99670.41
2018-12-06T02:01:28.934Z,99670.30
2018-12-06T02:03:56.964Z,99671.16
2018-12-06T02:06:24.564Z,99671.02
2018-12-06T02:08:52.149Z,99660.89
2018-12-06T02:11:19.716Z,99654.25
2018-12-06T02:13:47.653Z,99654.97
2018-12-06T02:16:15.261Z,99654.61
2018-12-06T02:18:42.832Z,99650.98
2018-12-06T02:21:10.937Z,99649.04
2018-12-06T02:23:39.023Z,99642.76
2018-12-06T02:26:06.672Z,99644.09
2018-12-06T02:28:34.264Z,99653.03
2018-12-06T02:31:01.907Z,99644.34
2018-12-06T02:33:29.829Z,99648.80
2018-12-06T02:35:57.390Z,99646.64
2018-12-06T02:38:24.996Z,99638.78
2018-12-06T02:40:52.635Z,99640.22
2018-12-06T02:43:20.696Z,99647.25
2018-12-06T02:45:48.276Z,99648.69
2018-12-06T02:48:15.841Z,99653.14
2018-12-06T02:50:43.424Z,99656.66
2018-12-06T02:53:11.371Z,99656.55
2018-12-06T02:55:38.931Z,99653.89
2018-12-06T02:58:06.505Z,99657.27
2018-12-06T03:00:34.579Z,99656.77
2018-12-06T03:03:02.203Z,99654.97
2018-12-06T03:05:29.784Z,99652.67
2018-12-06T03:07:57.455Z,99655.33
2018-12-06T03:10:25.378Z,99651.70
2018-12-06T03:12:52.949Z,99647.60
2018-12-06T03:15:20.569Z,99643.62
2018-12-06T03:17:48.162Z,99646.63
2018-12-06T03:20:16.087Z,99634.20
2018-12-06T03:22:43.726Z,99642.18
2018-12-06T03:25:11.369Z,99631.41
2018-12-06T03:27:38.945Z,99633.95
2018-12-06T03:30:06.884Z,99638.30
2018-12-06T03:32:34.500Z,99633.84
2018-12-06T03:35:02.220Z,99641.31
2018-12-06T03:37:29.961Z,99641.67
2018-12-06T03:39:57.873Z,99639.98
2018-12-06T03:42:25.455Z,99636.50
2018-12-06T03:44:53.100Z,99646.16
2018-12-06T03:47:20.772Z,99641.20
2018-12-06T03:49:48.684Z,99646.52
2018-12-06T03:52:16.301Z,99657.50
2018-12-06T03:54:43.876Z,99663.31
2018-12-06T03:57:11.873Z,99660.27
2018-12-06T03:59:39.453Z,99651.71
2018-12-06T04:02:07.055Z,99649.88
2018-12-06T04:04:35.019Z,99647.11
2018-12-06T04:07:02.659Z,99650.59
2018-12-06T04:09:30.327Z,99651.92
2018-12-06T04:11:57.937Z,99649.66
2018-12-06T04:14:25.817Z,99650.98
2018-12-06T04:16:53.482Z,99650.13
2018-12-06T04:19:21.102Z,99651.34
2018-12-06T04:21:48.753Z,99646.03
2018-12-06T04:24:16.349Z,99638.17
2018-12-06T04:26:44.026Z,99642.63
2018-12-06T04:29:12.023Z,99645.28
2018-12-06T04:31:40.033Z,99641.20
2018-12-06T04:34:07.663Z,99650.00
2018-12-06T04:36:35.262Z,99653.03
2018-12-06T04:39:04.777Z,99655.69
2018-12-06T04:41:32.383Z,99656.52
2018-12-06T04:44:00.014Z,99650.03
2018-12-06T04:46:28.844Z,99641.45
2018-12-06T04:48:56.556Z,99643.86
2018-12-06T04:51:24.189Z,99641.81
2018-12-06T04:53:51.848Z,99646.38
2018-12-06T04:56:19.533Z,99655.20
2018-12-06T04:58:47.104Z,99649.89
2018-12-06T05:01:15.089Z,99650.61
2018-12-06T05:03:42.760Z,99658.11
2018-12-06T05:06:10.446Z,99656.53
2018-12-06T05:08:38.537Z,99656.28
2018-12-06T05:11:06.688Z,99656.52
2018-12-06T05:13:34.270Z,99655.44
2018-12-06T05:16:02.272Z,99652.06
2018-12-06T05:18:29.829Z,99657.52
2018-12-06T05:20:57.470Z,99662.22
2018-12-06T05:23:25.405Z,99668.96
2018-12-06T05:25:53.521Z,99675.63
2018-12-06T05:28:21.157Z,99672.10
2018-12-06T05:30:48.813Z,99679.70
2018-12-06T05:33:17.723Z,99687.45
2018-12-06T05:35:48.900Z,99690.72
2018-12-06T05:38:16.519Z,99689.13
2018-12-06T05:40:44.569Z,99685.28
2018-12-06T05:43:12.235Z,99685.63
2018-12-06T05:48:56.294Z,99700.84
2018-12-06T05:51:23.956Z,99697.80
2018-12-06T05:53:51.645Z,99692.86
2018-12-06T05:56:19.676Z,99700.22
2018-12-06T05:58:47.289Z,99699.75
2018-12-06T06:01:14.902Z,99704.67
2018-12-06T06:03:43.502Z,99706.16
2018-12-06T06:06:11.317Z,99703.96
2018-12-06T06:08:38.969Z,99705.05
2018-12-06T06:11:06.879Z,99714.50
2018-12-06T06:13:34.478Z,99721.15
2018-12-06T06:16:03.875Z,99741.56
2018-12-06T06:18:33.076Z,99738.55
2018-12-06T06:21:00.660Z,99750.63
2018-12-06T06:23:28.358Z,99765.25
2018-12-06T06:25:56.365Z,99761.77
2018-12-06T06:28:25.684Z,99756.56
2018-12-06T06:30:53.537Z,99748.22
2018-12-06T06:33:21.480Z,99749.20
2018-12-06T06:35:49.169Z,99749.20
2018-12-06T06:38:16.798Z,99744.85
2018-12-06T06:40:44.856Z,99724.77
2018-12-06T06:43:13.512Z,99730.34
2018-12-06T06:45:41.141Z,99732.05
2018-12-06T06:48:09.198Z,99720.66
2018-12-06T06:50:36.986Z,99721.39
2018-12-06T06:53:04.616Z,99725.98
2018-12-06T06:55:32.562Z,99727.31
2018-12-06T06:58:00.172Z,99744.48
2018-12-06T07:00:28.488Z,99757.87
2018-12-06T07:02:58.593Z,99765.13
2018-12-06T07:05:26.165Z,99767.56
2018-12-06T07:07:54.338Z,99766.70
2018-12-06T07:10:22.569Z,99780.13
2018-12-06T07:12:50.214Z,99790.16
2018-12-06T07:15:17.793Z,99801.77
2018-12-06T07:17:45.415Z,99805.50
2018-12-06T07:20:13.703Z,99805.25
2018-12-06T07:22:41.653Z,99811.30
2018-12-06T07:25:09.270Z,99810.58
2018-12-06T07:27:36.854Z,99810.69
2018-12-06T07:30:12.120Z,99812.52
2018-12-06T07:32:34.594Z,99819.52
2018-12-06T07:35:02.235Z,99810.22
2018-12-06T07:37:30.257Z,99825.20
2018-12-06T07:39:57.828Z,99826.99
2018-12-06T07:42:26.825Z,99824.95
2018-12-06T07:44:55.343Z,99813.48
2018-12-06T07:47:22.909Z,99803.82
2018-12-06T07:49:50.526Z,99808.64
2018-12-06T07:52:18.561Z,99827.14
2018-12-06T07:54:46.533Z,99829.30
2018-12-06T07:57:14.121Z,99828.83
2018-12-06T07:59:43.167Z,99836.30
2018-12-06T08:02:11.766Z,99849.13
2018-12-06T08:04:39.373Z,99846.94
2018-12-06T08:07:07.999Z,99841.15
2018-12-06T08:09:35.609Z,99842.95
2018-12-06T08:12:03.375Z,99846.11
2018-12-06T08:14:31.383Z,99855.41
2018-12-06T08:16:58.993Z,99858.43
2018-12-06T08:19:26.605Z,99853.97
2018-12-06T08:21:54.564Z,99857.35
2018-12-06T08:24:22.179Z,99851.06
2018-12-06T08:26:50.426Z,99852.64
2018-12-06T08:29:18.376Z,99858.22
2018-12-06T08:31:46.045Z,99859.80
2018-12-06T08:34:14.636Z,99848.91
2018-12-06T08:36:42.618Z,99851.31
2018-12-06T08:39:10.262Z,99839.95
2018-12-06T08:41:37.893Z,99839.98
2018-12-06T08:44:06.426Z,99834.30
2018-12-06T08:46:34.094Z,99838.31
2018-12-06T08:49:03.100Z,99839.16
2018-12-06T08:51:31.220Z,99835.52
2018-12-06T08:53:58.870Z,99836.73
2018-12-06T08:56:26.480Z,99836.59
2018-12-06T08:58:54.444Z,99846.25
2018-12-06T09:01:22.112Z,99844.91
2018-12-06T09:03:50.358Z,99847.34
2018-12-06T09:06:18.702Z,99847.23
2018-12-06T09:08:46.361Z,99860.39
2018-12-06T09:11:14.012Z,99861.86
2018-12-06T09:13:42.693Z,99865.59
2018-12-06T09:16:10.321Z,99872.84
2018-12-06T09:18:37.998Z,99883.38
2018-12-06T09:21:07.396Z,99888.33
2018-12-06T09:23:35.033Z,99879.97
2018-12-06T09:26:02.749Z,99889.03
2018-12-06T09:28:30.752Z,99897.41
2018-12-06T09:31:01.119Z,99887.83
2018-12-06T09:33:28.212Z,99894.02
2018-12-06T09:35:56.195Z,99896.53
2018-12-06T09:38:24.350Z,99895.95
2018-12-06T09:40:51.982Z,99890.47
2018-12-06T09:43:20.567Z,99891.69
2018-12-06T09:45:48.978Z,99879.46
2018-12-06T09:48:16.629Z,99879.72
2018-12-06T09:50:44.656Z,99878.15
2018-12-06T09:53:12.297Z,99883.12
2018-12-06T09:55:41.529Z,99884.09
2018-12-06T09:58:10.612Z,99889.78
2018-12-06T10:00:38.244Z,99883.83
2018-12-06T10:03:05.848Z,99876.91
2018-12-06T10:05:34.457Z,99874.26
2018-12-06T10:08:02.083Z,99863.94
2018-12-06T10:10:30.624Z,99858.58
2018-12-06T10:12:58.679Z,99865.95
2018-12-06T10:15:27.865Z,99863.50
2018-12-06T10:17:55.520Z,99858.84
2018-12-06T10:20:23.436Z,99866.81
2018-12-06T10:22:51.051Z,99862.07
2018-12-06T10:25:18.656Z,99866.06
2018-12-06T10:27:47.558Z,99871.13
2018-12-06T10:30:15.240Z,99872.43
2018-12-06T10:32:43.744Z,99872.19
2018-12-06T10:35:13.125Z,99873.61
2018-12-06T10:37:40.834Z,99873.02
2018-12-06T10:40:08.450Z,99883.41
2018-12-06T10:42:36.481Z,99886.42
2018-12-06T10:45:04.114Z,99883.05
2018-12-06T10:47:31.731Z,99874.06
2018-12-06T10:49:59.753Z,99887.64
2018-12-06T10:52:27.796Z,99885.32
2018-12-06T10:54:59.358Z,99881.83
2018-12-06T10:57:27.283Z,99864.84
2018-12-06T10:59:56.113Z,99878.66
2018-12-06T11:02:33.260Z,99883.52
2018-12-06T11:05:01.305Z,99884.58
2018-12-06T11:07:30.109Z,99883.95
2018-12-06T11:09:57.701Z,99890.62
2018-12-06T11:12:25.732Z,99889.64
2018-12-06T11:14:54.352Z,99881.63
2018-12-06T11:17:21.982Z,99885.04
2018-12-06T11:19:49.953Z,99883.20
2018-12-06T11:22:17.614Z,99882.73
2018-12-06T11:24:46.221Z,99879.55
2018-12-06T11:27:14.577Z,99878.09
2018-12-06T11:29:42.386Z,99868.41
2018-12-06T11:32:10.550Z,99871.08
2018-12-06T11:34:38.518Z,99866.45
2018-12-06T11:37:07.188Z,99878.80
2018-12-06T11:39:34.856Z,99892.38
2018-12-06T11:42:03.672Z,99890.80
2018-12-06T11:44:31.316Z,99891.00
2018-12-06T11:46:59.806Z,99887.11
2018-12-06T11:49:28.072Z,99875.33
2018-12-06T11:51:56.278Z,99873.24
2018-12-06T11:54:26.284Z,99874.41
2018-12-06T11:56:53.919Z,99881.26
2018-12-06T11:59:22.338Z,99889.44
2018-12-06T12:01:50.276Z,99892.53
2018-12-06T12:04:17.981Z,99900.30
2018-12-06T12:06:45.963Z,99901.00
2018-12-06T12:09:16.185Z,99906.57
2018-12-06T12:11:44.056Z,99904.76
2018-12-06T12:14:11.673Z,99896.75
2018-12-06T12:16:39.725Z,99906.09
2018-12-06T12:19:10.344Z,99905.36
2018-12-06T12:24:16.809Z,99910.84
2018-12-06T12:26:44.443Z,99907.77
2018-12-06T12:29:12.044Z,99915.70
2018-12-06T12:31:41.264Z,99913.67
2018-12-06T12:34:09.639Z,99906.58
2018-12-06T12:36:38.401Z,99914.47
2018-12-06T12:39:13.463Z,99913.41
2018-12-06T12:41:43.487Z,99909.52
2018-12-06T12:44:12.256Z,99906.15
2018-12-06T12:46:39.896Z,99903.60
2018-12-06T12:49:07.621Z,99897.80
2018-12-06T12:51:35.892Z,99902.27
2018-12-06T12:54:05.373Z,99898.53
2018-12-06T12:56:34.356Z,99903.76
2018-12-06T12:59:04.719Z,99914.94
2018-12-06T13:01:33.412Z,99912.27
2018-12-06T13:04:03.850Z,99914.42
2018-12-06T13:06:35.239Z,99914.31
2018-12-06T13:09:06.198Z,99898.30
2018-12-06T13:11:34.434Z,99900.23
2018-12-06T13:14:02.800Z,99901.05
2018-12-06T13:16:30.492Z,99904.58
2018-12-06T13:19:02.315Z,99901.44
2018-12-06T13:21:31.460Z,99901.64
2018-12-06T13:23:59.375Z,99906.38
2018-12-06T13:26:26.983Z,99899.72
2018-12-06T13:28:54.671Z,99902.23
2018-12-06T13:31:23.265Z,99895.44
2018-12-06T13:33:52.017Z,99890.96
2018-12-06T13:36:19.680Z,99895.80
2018-12-06T13:38:47.619Z,99892.30
2018-12-06T13:41:15.748Z,99905.12
2018-12-06T13:43:44.988Z,99895.20
2018-12-06T13:46:14.483Z,99888.88
2018-12-06T13:48:43.435Z,99887.39
2018-12-06T13:53:50.720Z,99883.90
2018-12-06T13:56:19.216Z,99892.73
2018-12-06T13:58:48.046Z,99894.41
2018-12-06T14:01:16.826Z,99891.27
2018-12-06T14:03:45.559Z,99903.63
2018-12-06T14:06:13.240Z,99896.96
2018-12-06T14:08:45.793Z,99903.74
2018-12-06T14:11:13.948Z,99899.11
2018-12-06T14:13:42.100Z,99897.15
2018-12-06T14:16:12.325Z,99901.89
2018-12-06T14:18:43.165Z,99899.93
2018-12-06T14:21:10.790Z,99901.27
2018-12-06T14:23:44.915Z,99900.16
2018-12-06T14:26:13.348Z,99908.99
2018-12-06T14:31:28.324Z,99898.90
2018-12-06T14:33:59.797Z,99902.27
2018-12-06T14:36:33.519Z,99898.15
2018-12-06T14:39:01.698Z,99896.19
2018-12-06T14:41:31.388Z,99894.84
2018-12-06T14:44:00.271Z,99902.73
2018-12-06T14:46:28.725Z,99904.77
2018-12-06T14:48:56.378Z,99902.97
2018-12-06T14:51:26.135Z,99909.87
2018-12-06T14:53:54.823Z,99907.55
2018-12-06T14:56:22.932Z,99907.42
2018-12-06T14:58:50.579Z,99906.44
2018-12-06T15:01:18.560Z,99916.14
2018-12-06T15:03:48.668Z,99919.86
2018-12-06T15:06:16.986Z,99915.23
2018-12-06T15:08:45.288Z,99923.98
2018-12-06T15:11:12.922Z,99926.64
2018-12-06T15:13:40.536Z,99930.66
2018-12-06T15:16:08.561Z,99927.98
2018-12-06T15:18:36.811Z,99939.48
2018-12-06T15:21:04.460Z,99936.34
2018-12-06T15:23:32.428Z,99921.15
2018-12-06T15:26:00.040Z,99922.48
2018-12-06T15:28:27.679Z,99916.67
2018-12-06T15:30:58.253Z,99912.66
2018-12-06T15:36:00.000Z,99900.53
2018-12-06T15:38:28.546Z,99902.56
2018-12-06T15:40:56.256Z,99912.39
2018-12-06T15:43:26.098Z,99914.58
2018-12-06T15:45:53.802Z,99915.80
2018-12-06T15:48:21.466Z,99909.94
2018-12-06T15:50:50.517Z,99909.47
2018-12-06T15:53:18.168Z,99912.61
2018-12-06T15:55:45.834Z,99913.47
2018-12-06T15:58:14.332Z,99914.81
2018-12-06T16:00:42.012Z,99908.77
2018-12-06T16:03:09.636Z,99912.14
2018-12-06T16:05:40.413Z,99916.97
2018-12-06T16:08:09.080Z,99913.83
2018-12-06T16:10:36.691Z,99914.53
2018-12-06T16:13:05.751Z,99911.61
2018-12-06T16:15:33.380Z,99911.09
2018-12-06T16:18:01.044Z,99904.94
2018-12-06T16:20:29.000Z,99900.77
2018-12-06T16:22:56.713Z,99901.28
2018-12-06T16:25:24.383Z,99894.60
2018-12-06T16:27:52.420Z,99890.95
2018-12-06T16:30:20.042Z,99889.96
2018-12-06T16:32:47.669Z,99892.63
2018-12-06T16:35:16.073Z,99893.49
2018-12-06T16:37:44.414Z,99901.63
2018-12-06T16:40:12.042Z,99886.59
2018-12-06T16:42:40.074Z,99887.42
2018-12-06T16:45:09.612Z,99889.73
2018-12-06T16:47:37.277Z,99890.14
2018-12-06T16:50:05.550Z,99885.44
2018-12-06T16:52:33.145Z,99888.11
2018-12-06T16:55:04.844Z,99884.00
2018-12-06T16:57:32.509Z,99879.16
2018-12-06T17:00:00.109Z,99887.30
2018-12-06T17:02:28.101Z,99883.92
2018-12-06T17:04:56.681Z,99888.69
2018-12-06T17:07:25.521Z,99890.15
2018-12-06T17:09:53.982Z,99893.45
2018-12-06T17:12:21.955Z,99895.77
2018-12-06T17:14:49.630Z,99897.70
2018-12-06T17:17:17.698Z,99896.52
2018-12-06T17:19:46.190Z,99895.31
2018-12-06T17:22:15.733Z,99889.97
2018-12-06T17:24:43.688Z,99886.95
2018-12-06T17:27:12.019Z,99892.64
2018-12-06T17:29:40.717Z,99885.61
2018-12-06T17:32:08.674Z,99888.91
2018-12-06T17:34:36.462Z,99887.93
2018-12-06T17:37:05.254Z,99880.05
2018-12-06T17:39:33.200Z,99875.92
2018-12-06T17:42:01.334Z,99879.92
2018-12-06T17:44:29.930Z,99874.08
2018-12-06T17:46:59.889Z,99874.94
2018-12-06T17:49:30.254Z,99872.62
2018-12-06T17:51:57.907Z,99867.98
2018-12-06T17:54:26.790Z,99860.33
2018-12-06T17:56:54.438Z,99870.53
2018-12-06T17:59:22.117Z,99862.75
2018-12-06T18:01:50.249Z,99867.45
2018-12-06T18:04:17.870Z,99859.80
2018-12-06T18:06:45.543Z,99857.98
2018-12-06T18:09:14.258Z,99857.83
2018-12-06T18:11:43.907Z,99862.22
2018-12-06T18:14:11.761Z,99869.24
2018-12-06T18:16:39.831Z,99870.93
2018-12-06T18:19:07.482Z,99866.30
2018-12-06T18:21:35.115Z,99868.84
2018-12-06T18:24:05.926Z,99858.51
2018-12-06T18:26:33.515Z,99855.72
2018-12-06T18:29:01.101Z,99851.36
2018-12-06T18:31:29.092Z,99859.21
2018-12-06T18:33:56.753Z,99845.38
2018-12-06T18:36:25.316Z,99854.22
2018-12-06T18:38:53.333Z,99853.27
2018-12-06T18:41:21.693Z,99851.42
2018-12-06T18:43:50.542Z,99861.63
2018-12-06T18:46:18.605Z,99862.11
2018-12-06T18:48:46.183Z,99869.13
2018-12-06T18:51:13.813Z,99873.48
2018-12-06T18:53:41.874Z,99865.98
2018-12-06T18:56:09.677Z,99864.14
2018-12-06T18:58:37.257Z,99870.47
2018-12-06T19:01:05.168Z,99867.80
2018-12-06T19:03:33.320Z,99867.45
2018-12-06T19:06:00.976Z,99867.45
2018-12-06T19:08:29.017Z,99875.17
2018-12-06T19:10:56.654Z,99865.83
2018-12-06T19:13:25.860Z,99865.35
2018-12-06T19:15:54.122Z,99871.68
2018-12-06T19:18:22.265Z,99863.80
2018-12-06T19:20:50.913Z,99866.46
2018-12-06T19:23:19.569Z,99860.42
2018-12-06T19:25:50.854Z,99859.72
2018-12-06T19:28:21.931Z,99866.39
2018-12-06T19:30:50.394Z,99862.52
2018-12-06T19:33:18.589Z,99860.70
2018-12-06T19:35:47.236Z,99863.37
2018-12-06T19:38:16.293Z,99858.16
2018-12-06T19:40:44.501Z,99867.85
2018-12-06T19:43:12.672Z,99858.16
2018-12-06T19:45:42.307Z,99856.13
2018-12-06T19:48:09.912Z,99852.59
2018-12-06T19:50:37.548Z,99859.90
2018-12-06T19:53:06.548Z,99850.20
2018-12-06T19:55:34.201Z,99845.47
2018-12-06T19:58:02.749Z,99846.61
2018-12-06T20:00:32.322Z,99845.52
2018-12-06T20:02:59.905Z,99849.65
2018-12-06T20:05:28.662Z,99852.95
2018-12-06T20:07:57.278Z,99840.59
2018-12-06T20:10:24.914Z,99849.93
2018-12-06T20:12:52.537Z,99843.26
2018-12-06T20:15:20.560Z,99845.30
2018-12-06T20:17:50.031Z,99846.16
2018-12-06T20:20:23.525Z,99848.70
2018-12-06T20:22:48.978Z,99844.70
2018-12-06T20:25:16.574Z,99840.88
2018-12-06T20:27:44.274Z,99835.92
2018-12-06T20:30:15.502Z,99827.77
2018-12-06T20:32:43.709Z,99822.17
2018-12-06T20:35:11.452Z,99827.70
2018-12-06T20:37:40.001Z,99817.25
2018-12-06T20:40:08.919Z,99823.03
2018-12-06T20:42:37.619Z,99817.41
2018-12-06T20:45:06.696Z,99817.16
2018-12-06T20:47:34.308Z,99813.56
2018-12-06T20:50:01.905Z,99801.77
2018-12-06T20:52:29.945Z,99796.30
2018-12-06T20:54:57.957Z,99803.67
2018-12-06T20:57:26.291Z,99807.20
2018-12-06T20:59:54.359Z,99812.55
2018-12-06T21:02:23.018Z,99808.89
2018-12-06T21:04:50.845Z,99803.55
2018-12-06T21:07:20.695Z,99803.42
2018-12-06T21:09:48.526Z,99801.09
2018-12-06T21:12:16.119Z,99807.36
2018-12-06T21:14:44.184Z,99803.70
2018-12-06T21:17:14.782Z,99801.73
2018-12-06T21:19:42.436Z,99805.13
2018-12-06T21:22:10.365Z,99798.29
2018-12-06T21:24:37.965Z,99797.46
2018-12-06T21:27:05.547Z,99797.94
2018-12-06T21:29:33.401Z,99794.44
2018-12-06T21:32:01.991Z,99792.25
2018-12-06T21:34:29.562Z,99797.30
2018-12-06T21:36:57.570Z,99784.29
2018-12-06T21:39:25.957Z,99781.48
2018-12-06T21:41:53.549Z,99786.84
2018-12-06T21:44:21.615Z,99787.18
2018-12-06T21:46:52.055Z,99784.73
2018-12-06T21:49:19.702Z,99783.39
2018-12-06T21:51:47.736Z,99783.91
2018-12-06T21:54:15.341Z,99787.53
2018-12-06T21:56:43.314Z,99787.18
2018-12-06T21:59:12.408Z,99789.51
2018-12-06T22:01:41.692Z,99782.48
2018-12-06T22:04:09.721Z,99783.95
2018-12-06T22:06:37.290Z,99786.27
2018-12-06T22:09:07.244Z,99775.93
2018-12-06T22:11:35.451Z,99774.11
2018-12-06T22:14:03.458Z,99773.98
2018-12-06T22:16:31.040Z,99775.67
2018-12-06T22:18:58.614Z,99770.16
2018-12-06T22:21:26.636Z,99778.69
2018-12-06T22:23:54.258Z,99777.35
2018-12-06T22:26:21.886Z,99753.53
2018-12-06T22:28:50.089Z,99766.59
2018-12-06T22:31:19.724Z,99756.47
2018-12-06T22:33:48.313Z,99758.15
2018-12-06T22:36:15.921Z,99759.36
2018-12-06T22:38:44.788Z,99751.21
2018-12-06T22:41:13.026Z,99754.23
2018-12-06T22:43:40.646Z,99750.05
2018-12-06T22:46:08.854Z,99749.58
2018-12-06T22:48:36.461Z,99746.27
2018-12-06T22:51:04.641Z,99745.66
2018-12-06T22:53:32.678Z,99734.32
2018-12-06T22:56:01.892Z,99745.70
2018-12-06T22:58:29.513Z,99735.02
2018-12-06T23:00:57.142Z,99742.59
2018-12-06T23:03:25.367Z,99727.24
2018-12-06T23:05:54.613Z,99734.75
2018-12-06T23:08:22.200Z,99741.17
2018-12-06T23:10:49.803Z,99741.99
2018-12-06T23:13:17.771Z,99745.52
2018-12-06T23:15:46.049Z,99745.17
2018-12-06T23:18:13.633Z,99749.66
2018-12-06T23:20:41.258Z,99751.00
2018-12-06T23:23:09.250Z,99765.23
2018-12-06T23:25:36.836Z,99748.84
2018-12-06T23:28:04.427Z,99754.19
2018-12-06T23:30:32.333Z,99753.11
2018-12-06T23:32:59.979Z,99750.95
2018-12-06T23:35:27.605Z,99752.86
2018-12-06T23:37:55.566Z,99745.36
2018-12-06T23:40:23.166Z,99744.66
2018-12-06T23:42:50.784Z,99744.66
2018-12-06T23:45:18.353Z,99742.25
2018-12-06T23:47:46.374Z,99738.54
2018-12-06T23:50:14.657Z,99732.50
2018-12-06T23:52:42.280Z,99740.78
2018-12-06T23:55:09.926Z,99735.38
2018-12-06T23:57:37.935Z,99727.63
